VOZ613 YBBN-YBMK
Flight info
| Callsign | VOZ613 |
|---|---|
| Flight time | N/A |
| Altitude | 34000 |
| Route | YBBN/19R N0474F340 BIXAD2 BIXAD Q67 RUNLA Q493 EMSUP V308 WELKE WELKE1 YBMK/14 |
| Aircraft | B738/M-V/N |
Departure
| Time | 2026-05-06 07:08 |
|---|---|
| Airport | Brisbane International Airport (YBBN) |
Arrival
| Time | N/A |
|---|---|
| Airport | Mackay Airport (YBMK) |
| Time | Latitude | Longitude | Altitude | Speed | Heading |
|---|---|---|---|---|---|
| 2026-05-06 06:51 | -27.38678 | 153.12098 | 28 ft | 0 kts | 194° |
| 2026-05-06 06:54 | -27.38679 | 153.12098 | 20 ft | 0 kts | 194° |
| 2026-05-06 06:54 | -27.38689 | 153.12095 | 21 ft | 2 kts | 194° |
| 2026-05-06 06:54 | -27.38704 | 153.12091 | 22 ft | 2 kts | 193° |
| 2026-05-06 06:54 | -27.38721 | 153.12087 | 20 ft | 3 kts | 191° |
| 2026-05-06 06:55 | -27.38738 | 153.12088 | 21 ft | 2 kts | 148° |
| 2026-05-06 06:55 | -27.38749 | 153.12107 | 21 ft | 3 kts | 121° |
| 2026-05-06 06:55 | -27.38761 | 153.12132 | 20 ft | 4 kts | 114° |
| 2026-05-06 06:55 | -27.38769 | 153.12162 | 20 ft | 5 kts | 107° |
| 2026-05-06 06:56 | -27.38782 | 153.12205 | 20 ft | 6 kts | 107° |
| 2026-05-06 06:56 | -27.38794 | 153.12250 | 21 ft | 6 kts | 107° |
| 2026-05-06 06:56 | -27.38788 | 153.12296 | 20 ft | 6 kts | 61° |
| 2026-05-06 06:56 | -27.38758 | 153.12328 | 21 ft | 6 kts | 31° |
| 2026-05-06 06:57 | -27.38719 | 153.12350 | 20 ft | 6 kts | 28° |
| 2026-05-06 06:57 | -27.38682 | 153.12372 | 20 ft | 6 kts | 27° |
| 2026-05-06 06:57 | -27.38644 | 153.12393 | 22 ft | 6 kts | 26° |
| 2026-05-06 06:57 | -27.38601 | 153.12417 | 21 ft | 8 kts | 27° |
| 2026-05-06 06:58 | -27.38539 | 153.12452 | 20 ft | 12 kts | 27° |
| 2026-05-06 06:58 | -27.38462 | 153.12496 | 20 ft | 13 kts | 26° |
| 2026-05-06 06:58 | -27.38383 | 153.12541 | 21 ft | 12 kts | 27° |
| 2026-05-06 06:58 | -27.38307 | 153.12586 | 20 ft | 12 kts | 27° |
| 2026-05-06 06:59 | -27.38233 | 153.12628 | 20 ft | 12 kts | 26° |
| 2026-05-06 06:59 | -27.38160 | 153.12669 | 20 ft | 12 kts | 27° |
| 2026-05-06 06:59 | -27.38090 | 153.12709 | 20 ft | 11 kts | 27° |
| 2026-05-06 06:59 | -27.38021 | 153.12748 | 21 ft | 11 kts | 27° |
| 2026-05-06 07:00 | -27.37954 | 153.12786 | 20 ft | 11 kts | 27° |
| 2026-05-06 07:00 | -27.37887 | 153.12812 | 20 ft | 10 kts | 347° |
| 2026-05-06 07:00 | -27.37844 | 153.12751 | 20 ft | 10 kts | 296° |
| 2026-05-06 07:00 | -27.37813 | 153.12682 | 20 ft | 10 kts | 296° |
| 2026-05-06 07:01 | -27.37782 | 153.12614 | 20 ft | 10 kts | 298° |
| 2026-05-06 07:01 | -27.37751 | 153.12549 | 20 ft | 9 kts | 298° |
| 2026-05-06 07:01 | -27.37722 | 153.12485 | 21 ft | 9 kts | 297° |
| 2026-05-06 07:01 | -27.37690 | 153.12415 | 20 ft | 12 kts | 297° |
| 2026-05-06 07:02 | -27.37653 | 153.12333 | 20 ft | 12 kts | 297° |
| 2026-05-06 07:02 | -27.37618 | 153.12254 | 20 ft | 11 kts | 297° |
| 2026-05-06 07:02 | -27.37580 | 153.12172 | 20 ft | 14 kts | 297° |
| 2026-05-06 07:02 | -27.37534 | 153.12069 | 20 ft | 15 kts | 297° |
| 2026-05-06 07:03 | -27.37487 | 153.11967 | 20 ft | 14 kts | 297° |
| 2026-05-06 07:03 | -27.37441 | 153.11870 | 20 ft | 14 kts | 298° |
| 2026-05-06 07:03 | -27.37398 | 153.11777 | 20 ft | 13 kts | 297° |
| 2026-05-06 07:03 | -27.37355 | 153.11680 | 20 ft | 16 kts | 296° |
| 2026-05-06 07:04 | -27.37275 | 153.11606 | 20 ft | 16 kts | 0° |
| 2026-05-06 07:04 | -27.37178 | 153.11653 | 22 ft | 15 kts | 27° |
| 2026-05-06 07:04 | -27.37084 | 153.11706 | 20 ft | 16 kts | 26° |
| 2026-05-06 07:04 | -27.36984 | 153.11764 | 21 ft | 16 kts | 28° |
| 2026-05-06 07:05 | -27.36887 | 153.11821 | 21 ft | 15 kts | 26° |
| 2026-05-06 07:05 | -27.36794 | 153.11873 | 20 ft | 15 kts | 28° |
| 2026-05-06 07:05 | -27.36704 | 153.11924 | 20 ft | 14 kts | 26° |
| 2026-05-06 07:05 | -27.36609 | 153.11977 | 21 ft | 15 kts | 27° |
| 2026-05-06 07:06 | -27.36516 | 153.12030 | 22 ft | 15 kts | 27° |
| 2026-05-06 07:06 | -27.36427 | 153.12082 | 20 ft | 14 kts | 28° |
| 2026-05-06 07:06 | -27.36343 | 153.12131 | 22 ft | 13 kts | 22° |
| 2026-05-06 07:06 | -27.36268 | 153.12093 | 20 ft | 13 kts | 300° |
| 2026-05-06 07:07 | -27.36224 | 153.12006 | 22 ft | 13 kts | 300° |
| 2026-05-06 07:07 | -27.36188 | 153.11919 | 22 ft | 12 kts | 270° |
| 2026-05-06 07:07 | -27.36244 | 153.11857 | 22 ft | 12 kts | 207° |
| 2026-05-06 07:07 | -27.36467 | 153.11731 | 19 ft | 74 kts | 206° |
| 2026-05-06 07:08 | -27.37155 | 153.11338 | 20 ft | 145 kts | 207° |
| 2026-05-06 07:08 | -27.38219 | 153.10729 | 233 ft | 187 kts | 205° |
| 2026-05-06 07:08 | -27.39404 | 153.10031 | 1052 ft | 199 kts | 205° |
| 2026-05-06 07:08 | -27.40648 | 153.09256 | 1803 ft | 207 kts | 208° |
| 2026-05-06 07:09 | -27.41863 | 153.08477 | 2453 ft | 199 kts | 203° |
| 2026-05-06 07:09 | -27.43058 | 153.07845 | 3189 ft | 183 kts | 203° |
| 2026-05-06 07:09 | -27.44162 | 153.07250 | 3868 ft | 170 kts | 204° |
| 2026-05-06 07:09 | -27.45209 | 153.06674 | 4319 ft | 168 kts | 204° |
| 2026-05-06 07:10 | -27.46249 | 153.06093 | 4759 ft | 169 kts | 206° |
| 2026-05-06 07:10 | -27.47338 | 153.05476 | 5001 ft | 180 kts | 211° |
| 2026-05-06 07:10 | -27.48121 | 153.04358 | 5194 ft | 193 kts | 259° |
| 2026-05-06 07:10 | -27.48112 | 153.02821 | 5477 ft | 203 kts | 272° |
| 2026-05-06 07:11 | -27.48060 | 153.01192 | 5686 ft | 212 kts | 271° |
| 2026-05-06 07:11 | -27.48033 | 152.99496 | 5905 ft | 221 kts | 270° |
| 2026-05-06 07:11 | -27.48021 | 152.97730 | 6124 ft | 229 kts | 270° |
| 2026-05-06 07:11 | -27.48018 | 152.95925 | 6318 ft | 231 kts | 270° |
| 2026-05-06 07:12 | -27.48011 | 152.94120 | 6503 ft | 230 kts | 273° |
| 2026-05-06 07:12 | -27.47526 | 152.92436 | 6683 ft | 228 kts | 307° |
| 2026-05-06 07:12 | -27.46317 | 152.91323 | 6931 ft | 228 kts | 334° |
| 2026-05-06 07:12 | -27.44785 | 152.90788 | 7202 ft | 234 kts | 345° |
| 2026-05-06 07:13 | -27.43175 | 152.90403 | 7433 ft | 238 kts | 354° |
| 2026-05-06 07:13 | -27.41562 | 152.90703 | 7598 ft | 239 kts | 27° |
| 2026-05-06 07:13 | -27.40298 | 152.91914 | 7850 ft | 244 kts | 50° |
| 2026-05-06 07:13 | -27.39262 | 152.93483 | 8085 ft | 255 kts | 54° |
| 2026-05-06 07:14 | -27.38231 | 152.95171 | 8317 ft | 267 kts | 54° |
| 2026-05-06 07:14 | -27.37177 | 152.96906 | 8548 ft | 277 kts | 54° |
| 2026-05-06 07:14 | -27.36072 | 152.98710 | 8761 ft | 282 kts | 54° |
| 2026-05-06 07:14 | -27.34951 | 153.00525 | 8942 ft | 283 kts | 54° |
| 2026-05-06 07:15 | -27.33815 | 153.02351 | 9103 ft | 287 kts | 54° |
| 2026-05-06 07:15 | -27.32664 | 153.04192 | 9315 ft | 289 kts | 53° |
| 2026-05-06 07:15 | -27.31503 | 153.06042 | 9524 ft | 290 kts | 53° |
| 2026-05-06 07:15 | -27.30339 | 153.07896 | 9735 ft | 290 kts | 53° |
| 2026-05-06 07:16 | -27.29153 | 153.09723 | 9936 ft | 289 kts | 47° |
| 2026-05-06 07:16 | -27.27682 | 153.11252 | 10128 ft | 287 kts | 37° |
| 2026-05-06 07:16 | -27.26141 | 153.12677 | 10316 ft | 287 kts | 38° |
| 2026-05-06 07:16 | -27.24618 | 153.14123 | 10498 ft | 286 kts | 39° |
| 2026-05-06 07:17 | -27.23112 | 153.15583 | 10691 ft | 286 kts | 39° |
| 2026-05-06 07:17 | -27.21591 | 153.17029 | 10876 ft | 286 kts | 32° |
| 2026-05-06 07:17 | -27.19808 | 153.17939 | 11066 ft | 281 kts | 14° |
| 2026-05-06 07:17 | -27.17936 | 153.18575 | 11265 ft | 282 kts | 14° |
| 2026-05-06 07:18 | -27.16038 | 153.19217 | 11478 ft | 292 kts | 14° |
| 2026-05-06 07:18 | -27.14040 | 153.19900 | 11711 ft | 309 kts | 14° |
| 2026-05-06 07:18 | -27.11932 | 153.20631 | 11936 ft | 325 kts | 15° |
| 2026-05-06 07:18 | -27.09730 | 153.21403 | 12133 ft | 334 kts | 15° |
| 2026-05-06 07:19 | -27.07505 | 153.22188 | 12329 ft | 336 kts | 15° |
| 2026-05-06 07:19 | -27.05278 | 153.22976 | 12581 ft | 334 kts | 15° |
| 2026-05-06 07:19 | -27.03070 | 153.23745 | 13022 ft | 332 kts | 12° |
| 2026-05-06 07:19 | -27.00814 | 153.24086 | 13477 ft | 333 kts | 359° |
| 2026-05-06 07:20 | -26.98482 | 153.24119 | 13946 ft | 337 kts | 357° |
| 2026-05-06 07:20 | -26.96131 | 153.24124 | 14357 ft | 337 kts | 357° |
| 2026-05-06 07:20 | -26.93781 | 153.24134 | 14776 ft | 338 kts | 357° |
| 2026-05-06 07:20 | -26.91429 | 153.24158 | 15200 ft | 338 kts | 357° |
| 2026-05-06 07:21 | -26.89078 | 153.24192 | 15627 ft | 338 kts | 357° |
| 2026-05-06 07:21 | -26.86729 | 153.24234 | 16063 ft | 338 kts | 356° |
| 2026-05-06 07:21 | -26.84371 | 153.24280 | 16507 ft | 338 kts | 356° |